Terminal Aerodrome Forecast
Issued by NWS

Home | Current Version | Previous Version | Text Only | Print | Product List | Glossary On
Versions: 1 2 3 4 5 6 7 8 9 10 11 12 13 14 15 16 17 18 19 20 21 22 23
173
FTAK31 PAJN 311121
TAFASI
TAF
PASI 311121Z 3112/0112 09008KT P6SM -RA BKN040 OVC060
     FM312100 10012KT 5SM -RA BR SCT025 OVC035
     FM010300 12008KT 5SM -RA BR BKN020 OVC035=

USA.gov is the U.S. government's official web portal to all federal, state and local government web resources and services.